| |
Missouri Department of Transportation

Social Media Facebook Twitter Flickr Instagram YouTube RSS

Current AWOS Information

AWOS Home - General Info for all Airports
Current AWOS for all Airports - Current METAR for all Airports
Glossary - Disclaimer - Other Links

Recent AWOS History
11/27/15     07:32 AM CST      13:32 GMT
Air Temperature 37°F (3°C ) 1st Cloud Layer Overcast at 600 feet
Dew Point 36°F (2°C) 2nd Cloud Layer  
Barometric Pressure 30.38 in Hg. 3rd Cloud Layer  
Wind Speed 9 mph (8 knots) Density Altitude  
Peak Wind Gusts 18 mph (16 knots) Variable Wind Directions  
Wind Direction Quadrant(350°) Variable Visibility  
Visibility MM statute miles  

Thunderstorm and Precipitation Identification:  Missing
Thunderstorm Remarks: 

Current METAR Record: METAR KMHL 271339Z AUTO 35012KT OVC006 03/02 A3038 RMK AO2 P0001 PWINO




About Us
How Do I...
Contact Us
Missouri Department of Transportation
Central Office
105 W. Capitol Avenue
Jefferson City, MO 65102
1-888-ASK-MODOT (275-6636)
1-866-831-6277 (Motor Carrier Services)
Driver's License Offices
| | |
Missouri State Government
© 2013 Missouri Department of Transportation. All Rights Reserved.   Privacy Policy.
RSS FeedYoutubeBlogFlickrTwitter Facebook